Cristalina, Brazil
Current Conditions -  °F | °C
As of 4:00 AM on Saturday 20 Dec 2014 (Local Time) from SBBR Reporting Station
Broken Clouds Broken Clouds  
Wind Chill: 72°   Ceiling: 8000
Heat Index: 72°   Visibility: 6mi
Dew Point: 64°   Wind: 3mph
Humidity: 78%   Direction: 20°NNE
Pressure: 29.94"   Gusts: NA
Location:  16.77°S, 47.61°W
Report Text: SBBR 200600Z 02003KT 9999 FEW020 BKN080 22/18 Q1014
Loading
Personal Weather Stations






























Interactive Weather Map New forecast layout! Learn more

10-Day Weather Forecast

Advertisements
Track Severe Weather on mobile